sensor_id;sensor_type;location;lat;lon;timestamp;pressure;altitude;pressure_sealevel;temperature;humidity
68137;BME280;54939;50.826;9.030;2022-07-29T00:00:16;98590.13;;;26.57;33.03
68137;BME280;54939;50.826;9.030;2022-07-29T00:00:46;98589.06;;;26.58;33.30
68137;BME280;54939;50.826;9.030;2022-07-29T00:01:16;98586.31;;;26.58;33.11
68137;BME280;54939;50.826;9.030;2022-07-29T00:01:46;98588.22;;;26.57;32.88
68137;BME280;54939;50.826;9.030;2022-07-29T00:02:17;98600.84;;;26.58;33.25
68137;BME280;54939;50.826;9.030;2022-07-29T00:02:47;98594.28;;;26.59;33.18
68137;BME280;54939;50.826;9.030;2022-07-29T00:03:17;98588.22;;;26.57;32.91
68137;BME280;54939;50.826;9.030;2022-07-29T00:03:47;98587.16;;;26.58;32.89
68137;BME280;54939;50.826;9.030;2022-07-29T00:04:18;98585.81;;;26.61;33.11
68137;BME280;54939;50.826;9.030;2022-07-29T00:04:48;98583.91;;;26.61;33.04
68137;BME280;54939;50.826;9.030;2022-07-29T00:05:20;98582.25;;;26.60;32.89
68137;BME280;54939;50.826;9.030;2022-07-29T00:05:50;98583.31;;;26.59;32.83
68137;BME280;54939;50.826;9.030;2022-07-29T00:06:22;98588.81;;;26.59;32.88
68137;BME280;54939;50.826;9.030;2022-07-29T00:06:53;98590.72;;;26.59;33.27
68137;BME280;54939;50.826;9.030;2022-07-29T00:07:23;98586.31;;;26.58;32.96
68137;BME280;54939;50.826;9.030;2022-07-29T00:07:54;98587.16;;;26.58;32.84
68137;BME280;54939;50.826;9.030;2022-07-29T00:08:24;98583.56;;;26.58;33.13
68137;BME280;54939;50.826;9.030;2022-07-29T00:08:57;98579.19;;;26.57;33.08
68137;BME280;54939;50.826;9.030;2022-07-29T00:09:27;98592.63;;;26.58;32.98
68137;BME280;54939;50.826;9.030;2022-07-29T00:09:57;98586.31;;;26.58;33.07
68137;BME280;54939;50.826;9.030;2022-07-29T00:10:31;98580.84;;;26.58;33.08
68137;BME280;54939;50.826;9.030;2022-07-29T00:11:01;98585.50;;;26.57;32.91
68137;BME280;54939;50.826;9.030;2022-07-29T00:11:31;98591.22;;;26.56;33.22
68137;BME280;54939;50.826;9.030;2022-07-29T00:12:01;98591.22;;;26.56;33.19
68137;BME280;54939;50.826;9.030;2022-07-29T00:12:32;98586.56;;;26.56;33.07
68137;BME280;54939;50.826;9.030;2022-07-29T00:13:04;98585.75;;;26.56;33.12
68137;BME280;54939;50.826;9.030;2022-07-29T00:13:34;98586.31;;;26.58;33.01
68137;BME280;54939;50.826;9.030;2022-07-29T00:14:04;98583.00;;;26.56;33.41
68137;BME280;54939;50.826;9.030;2022-07-29T00:14:35;98588.47;;;26.56;33.48
68137;BME280;54939;50.826;9.030;2022-07-29T00:15:05;98581.91;;;26.57;33.18
68137;BME280;54939;50.826;9.030;2022-07-29T00:15:35;98581.09;;;26.56;33.07
68137;BME280;54939;50.826;9.030;2022-07-29T00:16:05;98580.25;;;26.56;33.10
68137;BME280;54939;50.826;9.030;2022-07-29T00:16:36;98580.25;;;26.56;33.11
68137;BME280;54939;50.826;9.030;2022-07-29T00:17:06;98578.94;;;26.58;33.21
68137;BME280;54939;50.826;9.030;2022-07-29T00:17:36;98579.50;;;26.60;33.39
68137;BME280;54939;50.826;9.030;2022-07-29T00:18:06;98579.50;;;26.60;33.35
68137;BME280;54939;50.826;9.030;2022-07-29T00:18:36;98573.19;;;26.60;32.88
68137;BME280;54939;50.826;9.030;2022-07-29T00:19:07;98571.28;;;26.60;33.32
68137;BME280;54939;50.826;9.030;2022-07-29T00:19:37;98573.78;;;26.62;33.33
68137;BME280;54939;50.826;9.030;2022-07-29T00:20:07;98570.50;;;26.65;32.88
68137;BME280;54939;50.826;9.030;2022-07-29T00:20:37;98571.59;;;26.64;32.92
68137;BME280;54939;50.826;9.030;2022-07-29T00:21:08;98566.94;;;26.64;32.81
68137;BME280;54939;50.826;9.030;2022-07-29T00:21:38;98571.59;;;26.64;33.04
68137;BME280;54939;50.826;9.030;2022-07-29T00:22:08;98562.81;;;26.62;33.16
68137;BME280;54939;50.826;9.030;2022-07-29T00:22:38;98563.06;;;26.60;33.07
68137;BME280;54939;50.826;9.030;2022-07-29T00:23:08;98570.47;;;26.60;33.14
68137;BME280;54939;50.826;9.030;2022-07-29T00:23:39;98567.72;;;26.60;32.90
68137;BME280;54939;50.826;9.030;2022-07-29T00:24:09;98565.00;;;26.60;33.10
68137;BME280;54939;50.826;9.030;2022-07-29T00:24:39;98557.84;;;26.59;32.84
68137;BME280;54939;50.826;9.030;2022-07-29T00:25:09;98557.84;;;26.59;33.22
68137;BME280;54939;50.826;9.030;2022-07-29T00:25:40;98557.28;;;26.57;32.98
68137;BME280;54939;50.826;9.030;2022-07-29T00:26:10;98560.84;;;26.57;33.08
68137;BME280;54939;50.826;9.030;2022-07-29T00:26:40;98560.84;;;26.57;33.02
68137;BME280;54939;50.826;9.030;2022-07-29T00:27:10;98560.03;;;26.57;33.04
68137;BME280;54939;50.826;9.030;2022-07-29T00:27:40;98558.09;;;26.57;33.36
68137;BME280;54939;50.826;9.030;2022-07-29T00:28:11;98557.28;;;26.57;32.93
68137;BME280;54939;50.826;9.030;2022-07-29T00:28:44;98553.72;;;26.56;33.46
68137;BME280;54939;50.826;9.030;2022-07-29T00:29:14;98553.72;;;26.56;33.12
68137;BME280;54939;50.826;9.030;2022-07-29T00:29:44;98549.91;;;26.57;33.27
68137;BME280;54939;50.826;9.030;2022-07-29T00:30:15;98552.63;;;26.57;33.12
68137;BME280;54939;50.826;9.030;2022-07-29T00:30:45;98551.81;;;26.57;33.17
68137;BME280;54939;50.826;9.030;2022-07-29T00:31:15;98549.06;;;26.57;33.21
68137;BME280;54939;50.826;9.030;2022-07-29T00:31:45;98549.06;;;26.57;33.15
68137;BME280;54939;50.826;9.030;2022-07-29T00:32:15;98553.47;;;26.58;33.28
68137;BME280;54939;50.826;9.030;2022-07-29T00:32:46;98557.03;;;26.58;33.08
68137;BME280;54939;50.826;9.030;2022-07-29T00:33:16;98547.97;;;26.58;33.02
68137;BME280;54939;50.826;9.030;2022-07-29T00:33:46;98553.47;;;26.58;32.92
68137;BME280;54939;50.826;9.030;2022-07-29T00:34:16;98550.72;;;26.58;32.88
68137;BME280;54939;50.826;9.030;2022-07-29T00:35:05;98548.25;;;26.56;33.10
68137;BME280;54939;50.826;9.030;2022-07-29T00:35:54;98551.25;;;26.55;32.88
68137;BME280;54939;50.826;9.030;2022-07-29T00:36:24;98543.84;;;26.55;32.86
68137;BME280;54939;50.826;9.030;2022-07-29T00:36:54;98550.16;;;26.56;33.22
68137;BME280;54939;50.826;9.030;2022-07-29T00:37:25;98544.69;;;26.56;33.16
68137;BME280;54939;50.826;9.030;2022-07-29T00:37:55;98538.38;;;26.55;33.27
68137;BME280;54939;50.826;9.030;2022-07-29T00:38:25;98544.41;;;26.57;32.99
68137;BME280;54939;50.826;9.030;2022-07-29T00:38:55;98549.06;;;26.57;33.21
68137;BME280;54939;50.826;9.030;2022-07-29T00:39:25;98548.25;;;26.56;33.30
68137;BME280;54939;50.826;9.030;2022-07-29T00:39:55;98544.41;;;26.57;33.07
68137;BME280;54939;50.826;9.030;2022-07-29T00:40:26;98550.72;;;26.58;32.92
68137;BME280;54939;50.826;9.030;2022-07-29T00:40:56;98543.91;;;26.60;33.07
68137;BME280;54939;50.826;9.030;2022-07-29T00:41:26;98540.84;;;26.57;33.04
68137;BME280;54939;50.826;9.030;2022-07-29T00:41:56;98543.59;;;26.57;33.07
68137;BME280;54939;50.826;9.030;2022-07-29T00:42:26;98539.19;;;26.56;33.06
68137;BME280;54939;50.826;9.030;2022-07-29T00:42:57;98538.38;;;26.55;33.07
68137;BME280;54939;50.826;9.030;2022-07-29T00:43:27;98541.94;;;26.56;33.38
68137;BME280;54939;50.826;9.030;2022-07-29T00:43:57;98541.09;;;26.55;33.32
68137;BME280;54939;50.826;9.030;2022-07-29T00:44:27;98535.13;;;26.58;33.11
68137;BME280;54939;50.826;9.030;2022-07-29T00:44:58;98537.03;;;26.58;32.95
68137;BME280;54939;50.826;9.030;2022-07-29T00:45:28;98540.84;;;26.57;33.06
68137;BME280;54939;50.826;9.030;2022-07-29T00:45:59;98541.69;;;26.57;32.87
68137;BME280;54939;50.826;9.030;2022-07-29T00:46:29;98537.03;;;26.58;33.21
68137;BME280;54939;50.826;9.030;2022-07-29T00:47:00;98539.53;;;26.59;33.04
68137;BME280;54939;50.826;9.030;2022-07-29T00:47:30;98538.94;;;26.57;33.09
68137;BME280;54939;50.826;9.030;2022-07-29T00:48:00;98541.44;;;26.59;33.31
68137;BME280;54939;50.826;9.030;2022-07-29T00:48:30;98534.56;;;26.56;33.14
68137;BME280;54939;50.826;9.030;2022-07-29T00:49:01;98534.03;;;26.59;32.79
68137;BME280;54939;50.826;9.030;2022-07-29T00:49:31;98534.28;;;26.58;33.43
68137;BME280;54939;50.826;9.030;2022-07-29T00:50:01;98529.91;;;26.57;33.17
68137;BME280;54939;50.826;9.030;2022-07-29T00:50:33;98534.28;;;26.58;33.33
68137;BME280;54939;50.826;9.030;2022-07-29T00:51:03;98533.22;;;26.59;32.95
68137;BME280;54939;50.826;9.030;2022-07-29T00:51:35;98536.19;;;26.57;33.15
68137;BME280;54939;50.826;9.030;2022-07-29T00:52:06;98537.28;;;26.56;33.02
68137;BME280;54939;50.826;9.030;2022-07-29T00:52:37;98531.81;;;26.56;33.46
68137;BME280;54939;50.826;9.030;2022-07-29T00:53:08;98532.63;;;26.57;33.01
68137;BME280;54939;50.826;9.030;2022-07-29T00:53:38;98525.50;;;26.56;33.23
68137;BME280;54939;50.826;9.030;2022-07-29T00:54:08;98530.97;;;26.56;33.39
68137;BME280;54939;50.826;9.030;2022-07-29T00:54:39;98530.97;;;26.56;33.28
68137;BME280;54939;50.826;9.030;2022-07-29T00:55:13;98528.53;;;26.54;32.94
68137;BME280;54939;50.826;9.030;2022-07-29T00:55:44;98525.78;;;26.54;33.47
68137;BME280;54939;50.826;9.030;2022-07-29T00:56:14;98534.00;;;26.54;33.38
68137;BME280;54939;50.826;9.030;2022-07-29T00:56:44;98532.91;;;26.55;33.18
68137;BME280;54939;50.826;9.030;2022-07-29T00:57:14;98524.69;;;26.55;32.95
68137;BME280;54939;50.826;9.030;2022-07-29T00:57:45;98524.69;;;26.55;33.21
68137;BME280;54939;50.826;9.030;2022-07-29T00:58:15;98531.56;;;26.58;33.01
68137;BME280;54939;50.826;9.030;2022-07-29T00:58:46;98525.56;;;26.61;32.89
68137;BME280;54939;50.826;9.030;2022-07-29T00:59:16;98530.47;;;26.59;33.39
68137;BME280;54939;50.826;9.030;2022-07-29T00:59:47;98524.44;;;26.57;33.17
68137;BME280;54939;50.826;9.030;2022-07-29T01:00:18;98529.06;;;26.56;33.34
68137;BME280;54939;50.826;9.030;2022-07-29T01:00:49;98526.63;;;26.55;33.09
68137;BME280;54939;50.826;9.030;2022-07-29T01:01:19;98529.91;;;26.57;33.27
68137;BME280;54939;50.826;9.030;2022-07-29T01:01:49;98531.53;;;26.53;33.58
68137;BME280;54939;50.826;9.030;2022-07-29T01:02:19;98535.91;;;26.54;33.30
68137;BME280;54939;50.826;9.030;2022-07-29T01:02:49;98532.09;;;26.55;33.42
68137;BME280;54939;50.826;9.030;2022-07-29T01:03:20;98531.28;;;26.54;33.24
68137;BME280;54939;50.826;9.030;2022-07-29T01:03:50;98523.88;;;26.55;33.45
68137;BME280;54939;50.826;9.030;2022-07-29T01:04:20;98527.97;;;26.52;33.29
68137;BME280;54939;50.826;9.030;2022-07-29T01:04:50;98525.78;;;26.54;33.47
68137;BME280;54939;50.826;9.030;2022-07-29T01:05:21;98529.66;;;26.58;33.29
68137;BME280;54939;50.826;9.030;2022-07-29T01:05:52;98525.50;;;26.56;33.08
68137;BME280;54939;50.826;9.030;2022-07-29T01:06:23;98529.34;;;26.55;33.12
68137;BME280;54939;50.826;9.030;2022-07-29T01:06:53;98530.44;;;26.54;33.30
68137;BME280;54939;50.826;9.030;2022-07-29T01:07:24;98529.63;;;26.53;33.11
68137;BME280;54939;50.826;9.030;2022-07-29T01:07:55;98527.72;;;26.54;33.08
68137;BME280;54939;50.826;9.030;2022-07-29T01:08:27;98528.78;;;26.53;33.34
68137;BME280;54939;50.826;9.030;2022-07-29T01:08:57;98527.97;;;26.52;33.04
68137;BME280;54939;50.826;9.030;2022-07-29T01:09:27;98529.63;;;26.53;33.31
68137;BME280;54939;50.826;9.030;2022-07-29T01:09:58;98526.63;;;26.55;33.23
68137;BME280;54939;50.826;9.030;2022-07-29T01:10:28;98526.63;;;26.55;33.05
68137;BME280;54939;50.826;9.030;2022-07-29T01:10:59;98526.34;;;26.56;33.02
68137;BME280;54939;50.826;9.030;2022-07-29T01:11:31;98527.75;;;26.59;32.95
68137;BME280;54939;50.826;9.030;2022-07-29T01:12:01;98525.25;;;26.57;33.07
68137;BME280;54939;50.826;9.030;2022-07-29T01:12:32;98524.16;;;26.58;33.08
68137;BME280;54939;50.826;9.030;2022-07-29T01:13:03;98525.81;;;26.59;33.42
68137;BME280;54939;50.826;9.030;2022-07-29T01:13:33;98529.66;;;26.58;33.00
68137;BME280;54939;50.826;9.030;2022-07-29T01:14:04;98527.47;;;26.60;33.03
68137;BME280;54939;50.826;9.030;2022-07-29T01:14:35;98535.16;;;26.63;33.10
68137;BME280;54939;50.826;9.030;2022-07-29T01:15:06;98528.31;;;26.61;33.25
68137;BME280;54939;50.826;9.030;2022-07-29T01:15:39;98530.47;;;26.59;33.15
68137;BME280;54939;50.826;9.030;2022-07-29T01:16:18;98535.97;;;26.64;33.04
68137;BME280;54939;50.826;9.030;2022-07-29T01:16:59;98529.66;;;26.58;33.25
68137;BME280;54939;50.826;9.030;2022-07-29T01:17:46;98524.44;;;26.57;33.32
68137;BME280;54939;50.826;9.030;2022-07-29T01:18:34;98527.16;;;26.57;33.25
68137;BME280;54939;50.826;9.030;2022-07-29T01:19:12;98533.47;;;26.57;32.89
68137;BME280;54939;50.826;9.030;2022-07-29T01:20:31;98527.41;;;26.55;32.97
68137;BME280;54939;50.826;9.030;2022-07-29T01:21:12;98534.00;;;26.54;33.08
68137;BME280;54939;50.826;9.030;2022-07-29T01:21:51;98521.66;;;26.52;33.48
68137;BME280;54939;50.826;9.030;2022-07-29T01:27:24;98532.09;;;26.55;33.30
68137;BME280;54939;50.826;9.030;2022-07-29T01:29:49;98534.84;;;26.55;33.22
68137;BME280;54939;50.826;9.030;2022-07-29T01:30:22;98529.41;;;26.60;33.33
68137;BME280;54939;50.826;9.030;2022-07-29T01:30:53;98545.25;;;26.58;33.11
68137;BME280;54939;50.826;9.030;2022-07-29T01:31:35;98542.75;;;26.56;33.20
68137;BME280;54939;50.826;9.030;2022-07-29T01:32:10;98541.09;;;26.55;33.15
68137;BME280;54939;50.826;9.030;2022-07-29T01:32:41;98541.69;;;26.57;32.90
68137;BME280;54939;50.826;9.030;2022-07-29T01:33:13;98541.09;;;26.55;33.08
68137;BME280;54939;50.826;9.030;2022-07-29T01:34:05;98546.88;;;26.54;33.21
68137;BME280;54939;50.826;9.030;2022-07-29T01:35:15;98542.00;;;26.61;32.92
68137;BME280;54939;50.826;9.030;2022-07-29T01:35:46;98540.38;;;26.65;33.31
68137;BME280;54939;50.826;9.030;2022-07-29T01:36:18;98545.56;;;26.61;33.26
68137;BME280;54939;50.826;9.030;2022-07-29T01:36:51;98545.00;;;26.59;33.21
68137;BME280;54939;50.826;9.030;2022-07-29T01:37:26;98540.84;;;26.57;33.44
68137;BME280;54939;50.826;9.030;2022-07-29T01:39:56;98538.69;;;26.59;33.08
68137;BME280;54939;50.826;9.030;2022-07-29T01:40:29;98543.59;;;26.57;33.11
68137;BME280;54939;50.826;9.030;2022-07-29T01:41:05;98541.69;;;26.57;33.17
68137;BME280;54939;50.826;9.030;2022-07-29T01:41:37;98547.41;;;26.56;33.42
68137;BME280;54939;50.826;9.030;2022-07-29T01:42:43;98537.28;;;26.56;33.35
68137;BME280;54939;50.826;9.030;2022-07-29T01:43:14;98534.00;;;26.54;33.10
68137;BME280;54939;50.826;9.030;2022-07-29T01:43:53;98537.56;;;26.55;33.16
68137;BME280;54939;50.826;9.030;2022-07-29T01:44:27;98537.81;;;26.53;33.15
68137;BME280;54939;50.826;9.030;2022-07-29T01:45:02;98535.34;;;26.52;33.55
68137;BME280;54939;50.826;9.030;2022-07-29T01:45:36;98536.44;;;26.51;33.57
68137;BME280;54939;50.826;9.030;2022-07-29T01:46:09;98534.00;;;26.54;33.09
68137;BME280;54939;50.826;9.030;2022-07-29T01:46:41;98533.44;;;26.52;33.16
68137;BME280;54939;50.826;9.030;2022-07-29T01:47:15;98528.53;;;26.54;33.12
68137;BME280;54939;50.826;9.030;2022-07-29T01:48:53;98526.88;;;26.53;33.30
68137;BME280;54939;50.826;9.030;2022-07-29T01:49:28;98528.53;;;26.54;33.31
68137;BME280;54939;50.826;9.030;2022-07-29T01:49:59;98522.78;;;26.56;33.13
68137;BME280;54939;50.826;9.030;2022-07-29T01:50:35;98520.84;;;26.56;33.41
68137;BME280;54939;50.826;9.030;2022-07-29T01:51:06;98517.28;;;26.56;33.46
68137;BME280;54939;50.826;9.030;2022-07-29T01:51:46;98520.13;;;26.66;33.29
68137;BME280;54939;50.826;9.030;2022-07-29T01:52:26;98524.50;;;26.62;33.39
68137;BME280;54939;50.826;9.030;2022-07-29T01:52:58;98516.78;;;26.59;33.45
68137;BME280;54939;50.826;9.030;2022-07-29T01:53:37;98516.22;;;26.57;33.12
68137;BME280;54939;50.826;9.030;2022-07-29T01:54:49;98516.22;;;26.57;33.17
68137;BME280;54939;50.826;9.030;2022-07-29T01:55:22;98511.00;;;26.55;33.20
68137;BME280;54939;50.826;9.030;2022-07-29T01:55:54;98513.47;;;26.57;33.07
68137;BME280;54939;50.826;9.030;2022-07-29T01:56:27;98513.47;;;26.57;33.07
68137;BME280;54939;50.826;9.030;2022-07-29T01:57:00;98510.19;;;26.55;32.98
68137;BME280;54939;50.826;9.030;2022-07-29T01:57:32;98515.66;;;26.55;33.45
68137;BME280;54939;50.826;9.030;2022-07-29T01:58:04;98518.69;;;26.58;33.28
68137;BME280;54939;50.826;9.030;2022-07-29T01:58:35;98521.69;;;26.57;32.97
68137;BME280;54939;50.826;9.030;2022-07-29T01:59:08;98520.03;;;26.56;33.49
68137;BME280;54939;50.826;9.030;2022-07-29T01:59:40;98523.47;;;26.73;33.17
68137;BME280;54939;50.826;9.030;2022-07-29T02:00:12;98528.34;;;26.66;33.02
68137;BME280;54939;50.826;9.030;2022-07-29T02:00:43;98524.50;;;26.62;33.22
68137;BME280;54939;50.826;9.030;2022-07-29T02:01:14;98522.00;;;26.60;33.26
68137;BME280;54939;50.826;9.030;2022-07-29T02:01:45;98529.66;;;26.58;33.19
68137;BME280;54939;50.826;9.030;2022-07-29T02:02:16;98528.00;;;26.57;33.26
68137;BME280;54939;50.826;9.030;2022-07-29T02:02:48;98537.03;;;26.58;33.32
68137;BME280;54939;50.826;9.030;2022-07-29T02:03:18;98538.13;;;26.57;33.25
68137;BME280;54939;50.826;9.030;2022-07-29T02:03:49;98537.56;;;26.55;33.24
68137;BME280;54939;50.826;9.030;2022-07-29T02:04:20;98537.56;;;26.55;33.44
68137;BME280;54939;50.826;9.030;2022-07-29T02:04:50;98550.16;;;26.56;33.22
68137;BME280;54939;50.826;9.030;2022-07-29T02:05:22;98547.69;;;26.54;33.25
68137;BME280;54939;50.826;9.030;2022-07-29T02:05:53;98549.31;;;26.55;33.33
68137;BME280;54939;50.826;9.030;2022-07-29T02:06:26;98554.00;;;26.55;33.16
68137;BME280;54939;50.826;9.030;2022-07-29T02:06:58;98559.19;;;26.56;33.40
68137;BME280;54939;50.826;9.030;2022-07-29T02:07:30;98558.34;;;26.56;33.25
68137;BME280;54939;50.826;9.030;2022-07-29T02:08:02;98556.72;;;26.55;33.44
68137;BME280;54939;50.826;9.030;2022-07-29T02:08:34;98568.78;;;26.54;33.24
68137;BME280;54939;50.826;9.030;2022-07-29T02:09:06;98575.31;;;26.53;33.33
68137;BME280;54939;50.826;9.030;2022-07-29T02:09:36;98580.25;;;26.56;33.19
68137;BME280;54939;50.826;9.030;2022-07-29T02:10:09;98585.81;;;26.61;33.30
68137;BME280;54939;50.826;9.030;2022-07-29T02:10:40;98586.88;;;26.60;33.34
68137;BME280;54939;50.826;9.030;2022-07-29T02:11:12;98587.41;;;26.57;33.18
68137;BME280;54939;50.826;9.030;2022-07-29T02:11:44;98590.38;;;26.55;33.14
68137;BME280;54939;50.826;9.030;2022-07-29T02:12:17;98589.31;;;26.56;33.56
68137;BME280;54939;50.826;9.030;2022-07-29T02:12:48;98601.66;;;26.59;33.38
68137;BME280;54939;50.826;9.030;2022-07-29T02:13:20;98594.28;;;26.59;33.17
68137;BME280;54939;50.826;9.030;2022-07-29T02:13:50;98597.28;;;26.58;33.18
68137;BME280;54939;50.826;9.030;2022-07-29T02:14:22;98593.41;;;26.54;33.29
68137;BME280;54939;50.826;9.030;2022-07-29T02:14:53;98592.59;;;26.53;33.16
68137;BME280;54939;50.826;9.030;2022-07-29T02:15:25;98591.19;;;26.51;33.64
68137;BME280;54939;50.826;9.030;2022-07-29T02:15:57;98578.63;;;26.55;33.26
68137;BME280;54939;50.826;9.030;2022-07-29T02:16:29;98584.13;;;26.55;33.19
68137;BME280;54939;50.826;9.030;2022-07-29T02:17:00;98583.53;;;26.53;33.28
68137;BME280;54939;50.826;9.030;2022-07-29T02:17:35;98579.16;;;26.52;33.31
68137;BME280;54939;50.826;9.030;2022-07-29T02:18:14;98578.31;;;26.51;33.39
68137;BME280;54939;50.826;9.030;2022-07-29T02:18:45;98581.63;;;26.53;33.15
68137;BME280;54939;50.826;9.030;2022-07-29T02:19:19;98581.88;;;26.52;33.38
68137;BME280;54939;50.826;9.030;2022-07-29T02:19:51;98582.72;;;26.52;33.40
68137;BME280;54939;50.826;9.030;2022-07-29T02:20:22;98588.19;;;26.52;33.28
68137;BME280;54939;50.826;9.030;2022-07-29T02:20:54;98590.38;;;26.55;33.18
68137;BME280;54939;50.826;9.030;2022-07-29T02:21:25;98587.09;;;26.53;33.51
68137;BME280;54939;50.826;9.030;2022-07-29T02:21:56;98592.84;;;26.52;33.68
68137;BME280;54939;50.826;9.030;2022-07-29T02:22:28;98595.56;;;26.52;33.46
68137;BME280;54939;50.826;9.030;2022-07-29T02:22:59;98581.19;;;26.66;33.10
68137;BME280;54939;50.826;9.030;2022-07-29T02:23:30;98594.03;;;26.61;33.10
68137;BME280;54939;50.826;9.030;2022-07-29T02:24:01;98586.56;;;26.56;33.26
68137;BME280;54939;50.826;9.030;2022-07-29T02:24:32;98590.66;;;26.54;33.29
68137;BME280;54939;50.826;9.030;2022-07-29T02:25:05;98576.97;;;26.54;33.25
68137;BME280;54939;50.826;9.030;2022-07-29T02:25:36;98576.41;;;26.52;33.92
68137;BME280;54939;50.826;9.030;2022-07-29T02:26:07;98574.28;;;26.59;33.20
68137;BME280;54939;50.826;9.030;2022-07-29T02:26:39;98580.25;;;26.56;33.18
68137;BME280;54939;50.826;9.030;2022-07-29T02:27:10;98570.69;;;26.53;33.08
68137;BME280;54939;50.826;9.030;2022-07-29T02:27:41;98569.84;;;26.53;33.43
68137;BME280;54939;50.826;9.030;2022-07-29T02:28:13;98575.63;;;26.56;33.44
68137;BME280;54939;50.826;9.030;2022-07-29T02:28:43;98576.16;;;26.53;33.26
68137;BME280;54939;50.826;9.030;2022-07-29T02:29:14;98585.44;;;26.52;33.24
68137;BME280;54939;50.826;9.030;2022-07-29T02:29:45;98584.13;;;26.55;33.20
68137;BME280;54939;50.826;9.030;2022-07-29T02:30:16;98578.91;;;26.53;33.43
68137;BME280;54939;50.826;9.030;2022-07-29T02:30:47;98583.53;;;26.53;33.32
68137;BME280;54939;50.826;9.030;2022-07-29T02:31:20;98585.19;;;26.54;33.14
68137;BME280;54939;50.826;9.030;2022-07-29T02:31:51;98579.16;;;26.52;33.65
68137;BME280;54939;50.826;9.030;2022-07-29T02:32:22;98581.88;;;26.52;33.35
68137;BME280;54939;50.826;9.030;2022-07-29T02:32:54;98575.56;;;26.51;33.77
68137;BME280;54939;50.826;9.030;2022-07-29T02:33:24;98573.09;;;26.50;33.71
68137;BME280;54939;50.826;9.030;2022-07-29T02:33:55;98575.00;;;26.49;33.49
68137;BME280;54939;50.826;9.030;2022-07-29T02:34:26;98573.91;;;26.50;33.34
68137;BME280;54939;50.826;9.030;2022-07-29T02:34:57;98570.63;;;26.48;33.75
68137;BME280;54939;50.826;9.030;2022-07-29T02:35:28;98568.16;;;26.47;33.47
68137;BME280;54939;50.826;9.030;2022-07-29T02:35:59;98573.38;;;26.48;33.81
68137;BME280;54939;50.826;9.030;2022-07-29T02:36:30;98567.06;;;26.48;33.42
68137;BME280;54939;50.826;9.030;2022-07-29T02:37:01;98568.69;;;26.49;33.72
68137;BME280;54939;50.826;9.030;2022-07-29T02:37:33;98567.91;;;26.48;33.71
68137;BME280;54939;50.826;9.030;2022-07-29T02:38:03;98560.78;;;26.47;33.63
68137;BME280;54939;50.826;9.030;2022-07-29T02:38:52;98563.56;;;26.52;33.53
68137;BME280;54939;50.826;9.030;2022-07-29T02:39:27;98562.97;;;26.50;33.23
68137;BME280;54939;50.826;9.030;2022-07-29T02:39:58;98562.16;;;26.50;33.68
68137;BME280;54939;50.826;9.030;2022-07-29T02:40:29;98556.66;;;26.50;33.34
68137;BME280;54939;50.826;9.030;2022-07-29T02:41:00;98567.63;;;26.50;33.80
68137;BME280;54939;50.826;9.030;2022-07-29T02:41:37;98561.31;;;26.49;33.51
68137;BME280;54939;50.826;9.030;2022-07-29T02:42:09;98549.53;;;26.49;33.62
68137;BME280;54939;50.826;9.030;2022-07-29T02:42:41;98563.22;;;26.49;33.39
68137;BME280;54939;50.826;9.030;2022-07-29T02:43:12;98564.34;;;26.48;33.55
68137;BME280;54939;50.826;9.030;2022-07-29T02:43:43;98556.13;;;26.48;33.97
68137;BME280;54939;50.826;9.030;2022-07-29T02:44:15;98554.47;;;26.47;33.50
68137;BME280;54939;50.826;9.030;2022-07-29T02:44:46;98556.38;;;26.46;33.54
68137;BME280;54939;50.826;9.030;2022-07-29T02:45:16;98557.22;;;26.47;33.90
68137;BME280;54939;50.826;9.030;2022-07-29T02:45:47;98558.28;;;26.46;33.60
68137;BME280;54939;50.826;9.030;2022-07-29T02:46:19;98550.91;;;26.46;33.50
68137;BME280;54939;50.826;9.030;2022-07-29T02:46:52;98555.56;;;26.46;33.60
68137;BME280;54939;50.826;9.030;2022-07-29T02:47:24;98552.00;;;26.45;33.84
68137;BME280;54939;50.826;9.030;2022-07-29T02:47:55;98551.16;;;26.45;33.66
68137;BME280;54939;50.826;9.030;2022-07-29T02:48:31;98550.34;;;26.44;33.83
68137;BME280;54939;50.826;9.030;2022-07-29T02:49:07;98550.34;;;26.44;33.69
68137;BME280;54939;50.826;9.030;2022-07-29T02:49:48;98555.81;;;26.44;33.73
68137;BME280;54939;50.826;9.030;2022-07-29T02:50:23;98546.75;;;26.44;33.76
68137;BME280;54939;50.826;9.030;2022-07-29T02:51:01;98547.59;;;26.44;33.80
68137;BME280;54939;50.826;9.030;2022-07-29T02:51:45;98547.59;;;26.44;33.79
68137;BME280;54939;50.826;9.030;2022-07-29T02:52:17;98550.34;;;26.44;33.54
68137;BME280;54939;50.826;9.030;2022-07-29T02:52:55;98544.03;;;26.44;33.69
68137;BME280;54939;50.826;9.030;2022-07-29T02:53:27;98544.84;;;26.44;33.75
68137;BME280;54939;50.826;9.030;2022-07-29T02:54:01;98545.69;;;26.45;33.74
68137;BME280;54939;50.826;9.030;2022-07-29T02:54:37;98544.59;;;26.46;33.42
68137;BME280;54939;50.826;9.030;2022-07-29T02:56:23;98532.81;;;26.45;33.43
68137;BME280;54939;50.826;9.030;2022-07-29T02:56:55;98538.31;;;26.45;33.66
68137;BME280;54939;50.826;9.030;2022-07-29T02:57:30;98539.38;;;26.44;33.90
68137;BME280;54939;50.826;9.030;2022-07-29T02:58:54;98531.41;;;26.43;33.78
68137;BME280;54939;50.826;9.030;2022-07-29T02:59:26;98534.97;;;26.43;34.03
68137;BME280;54939;50.826;9.030;2022-07-29T02:59:57;98536.91;;;26.43;33.73
68137;BME280;54939;50.826;9.030;2022-07-29T03:00:30;98536.91;;;26.43;33.80
68137;BME280;54939;50.826;9.030;2022-07-29T03:01:02;98529.50;;;26.43;34.03
68137;BME280;54939;50.826;9.030;2022-07-29T03:01:32;98535.81;;;26.44;33.92
68137;BME280;54939;50.826;9.030;2022-07-29T03:02:04;98530.34;;;26.44;34.03
68137;BME280;54939;50.826;9.030;2022-07-29T03:02:38;98530.09;;;26.45;33.62
68137;BME280;54939;50.826;9.030;2022-07-29T03:03:12;98524.88;;;26.44;33.90
68137;BME280;54939;50.826;9.030;2022-07-29T03:03:44;98534.72;;;26.45;33.82
68137;BME280;54939;50.826;9.030;2022-07-29T03:04:15;98535.81;;;26.44;33.57